sensor_id;sensor_type;location;lat;lon;timestamp;pressure;altitude;pressure_sealevel;temperature;humidity
61037;BME280;72210;47.076;15.430;2023-10-31T00:01:55;64236.53;;;13.31;100.00
61037;BME280;72210;47.076;15.430;2023-10-31T00:04:22;64242.84;;;13.37;100.00
61037;BME280;72210;47.076;15.430;2023-10-31T00:06:49;64249.59;;;13.43;100.00
61037;BME280;72210;47.076;15.430;2023-10-31T00:09:16;64255.81;;;13.48;100.00
61037;BME280;72210;47.076;15.430;2023-10-31T00:11:43;64260.69;;;13.53;100.00
61037;BME280;72210;47.076;15.430;2023-10-31T00:14:12;64265.59;;;13.57;100.00
61037;BME280;72210;47.076;15.430;2023-10-31T00:16:56;64270.53;;;13.61;100.00
61037;BME280;72210;47.076;15.430;2023-10-31T00:19:23;64275.47;;;13.66;100.00
61037;BME280;72210;47.076;15.430;2023-10-31T00:21:51;64279.75;;;13.70;100.00
61037;BME280;72210;47.076;15.430;2023-10-31T00:24:18;64283.97;;;13.74;100.00
61037;BME280;72210;47.076;15.430;2023-10-31T00:26:45;64289.06;;;13.78;100.00
61037;BME280;72210;47.076;15.430;2023-10-31T00:29:13;64293.69;;;13.82;100.00
61037;BME280;72210;47.076;15.430;2023-10-31T00:31:40;64298.22;;;13.86;100.00
61037;BME280;72210;47.076;15.430;2023-10-31T00:34:08;64301.88;;;13.89;100.00
61037;BME280;72210;47.076;15.430;2023-10-31T00:36:35;64305.06;;;13.93;100.00
61037;BME280;72210;47.076;15.430;2023-10-31T00:39:02;64308.31;;;13.95;100.00
61037;BME280;72210;47.076;15.430;2023-10-31T00:41:29;64311.22;;;13.98;100.00
61037;BME280;72210;47.076;15.430;2023-10-31T00:43:57;64314.75;;;14.01;100.00
61037;BME280;72210;47.076;15.430;2023-10-31T00:46:26;64318.53;;;14.05;100.00
61037;BME280;72210;47.076;15.430;2023-10-31T00:48:53;64323.47;;;14.09;100.00
61037;BME280;72210;47.076;15.430;2023-10-31T00:51:19;64328.25;;;14.13;100.00
61037;BME280;72210;47.076;15.430;2023-10-31T00:53:46;64333.28;;;14.18;100.00
61037;BME280;72210;47.076;15.430;2023-10-31T00:56:13;64338.22;;;14.22;100.00
61037;BME280;72210;47.076;15.430;2023-10-31T00:58:40;64342.22;;;14.26;100.00
61037;BME280;72210;47.076;15.430;2023-10-31T01:01:07;64346.31;;;14.30;100.00
61037;BME280;72210;47.076;15.430;2023-10-31T01:03:36;64350.16;;;14.34;100.00
61037;BME280;72210;47.076;15.430;2023-10-31T01:06:03;64353.84;;;14.37;100.00
61037;BME280;72210;47.076;15.430;2023-10-31T01:08:30;64358.06;;;14.41;100.00
61037;BME280;72210;47.076;15.430;2023-10-31T01:10:57;64361.88;;;14.44;100.00
61037;BME280;72210;47.076;15.430;2023-10-31T01:13:24;64365.56;;;14.47;100.00
61037;BME280;72210;47.076;15.430;2023-10-31T01:15:51;64368.69;;;14.50;100.00
61037;BME280;72210;47.076;15.430;2023-10-31T01:18:18;64371.22;;;14.52;100.00
61037;BME280;72210;47.076;15.430;2023-10-31T01:20:46;64373.69;;;14.55;100.00
61037;BME280;72210;47.076;15.430;2023-10-31T01:23:13;64376.53;;;14.57;100.00
61037;BME280;72210;47.076;15.430;2023-10-31T01:25:40;64379.34;;;14.60;100.00
61037;BME280;72210;47.076;15.430;2023-10-31T01:28:07;64381.44;;;14.62;100.00
61037;BME280;72210;47.076;15.430;2023-10-31T01:30:34;64382.53;;;14.63;100.00
61037;BME280;72210;47.076;15.430;2023-10-31T01:33:01;64383.94;;;14.64;100.00
61037;BME280;72210;47.076;15.430;2023-10-31T01:35:29;64384.69;;;14.65;100.00
61037;BME280;72210;47.076;15.430;2023-10-31T01:37:57;64384.84;;;14.65;100.00
61037;BME280;72210;47.076;15.430;2023-10-31T01:40:24;64383.91;;;14.63;100.00
61037;BME280;72210;47.076;15.430;2023-10-31T01:42:51;64382.44;;;14.62;100.00
61037;BME280;72210;47.076;15.430;2023-10-31T01:45:18;64381.31;;;14.61;100.00
61037;BME280;72210;47.076;15.430;2023-10-31T01:47:48;64380.94;;;14.61;100.00
61037;BME280;72210;47.076;15.430;2023-10-31T01:50:16;64380.81;;;14.61;100.00
61037;BME280;72210;47.076;15.430;2023-10-31T01:52:43;64381.38;;;14.61;100.00
61037;BME280;72210;47.076;15.430;2023-10-31T01:55:13;64382.38;;;14.62;100.00
61037;BME280;72210;47.076;15.430;2023-10-31T01:57:41;64383.06;;;14.63;100.00
61037;BME280;72210;47.076;15.430;2023-10-31T02:00:13;64384.47;;;14.64;100.00
61037;BME280;72210;47.076;15.430;2023-10-31T02:02:41;64385.19;;;14.65;100.00
61037;BME280;72210;47.076;15.430;2023-10-31T02:05:09;64385.75;;;14.65;100.00
61037;BME280;72210;47.076;15.430;2023-10-31T02:07:36;64385.91;;;14.65;100.00
61037;BME280;72210;47.076;15.430;2023-10-31T02:10:04;64386.78;;;14.66;100.00
61037;BME280;72210;47.076;15.430;2023-10-31T02:12:33;64387.06;;;14.66;100.00
61037;BME280;72210;47.076;15.430;2023-10-31T02:15:00;64387.34;;;14.66;100.00
61037;BME280;72210;47.076;15.430;2023-10-31T02:17:27;64388.09;;;14.67;100.00
61037;BME280;72210;47.076;15.430;2023-10-31T02:19:54;64388.19;;;14.67;100.00
61037;BME280;72210;47.076;15.430;2023-10-31T02:22:23;64388.91;;;14.67;100.00
61037;BME280;72210;47.076;15.430;2023-10-31T02:24:50;64389.47;;;14.68;100.00
61037;BME280;72210;47.076;15.430;2023-10-31T02:27:16;64389.41;;;14.68;100.00
61037;BME280;72210;47.076;15.430;2023-10-31T02:29:43;64389.72;;;14.68;100.00
61037;BME280;72210;47.076;15.430;2023-10-31T02:32:10;64389.72;;;14.68;100.00
61037;BME280;72210;47.076;15.430;2023-10-31T02:34:37;64389.41;;;14.68;100.00
61037;BME280;72210;47.076;15.430;2023-10-31T02:37:05;64388.88;;;14.68;100.00
61037;BME280;72210;47.076;15.430;2023-10-31T02:39:33;64388.03;;;14.67;100.00
61037;BME280;72210;47.076;15.430;2023-10-31T02:42:00;64386.34;;;14.65;100.00
61037;BME280;72210;47.076;15.430;2023-10-31T02:44:27;64384.41;;;14.63;100.00
61037;BME280;72210;47.076;15.430;2023-10-31T02:46:54;64381.84;;;14.61;100.00
61037;BME280;72210;47.076;15.430;2023-10-31T02:49:21;64379.59;;;14.59;100.00
61037;BME280;72210;47.076;15.430;2023-10-31T02:51:48;64377.13;;;14.57;100.00
61037;BME280;72210;47.076;15.430;2023-10-31T02:54:15;64374.03;;;14.54;100.00
61037;BME280;72210;47.076;15.430;2023-10-31T02:56:44;64371.56;;;14.51;100.00
61037;BME280;72210;47.076;15.430;2023-10-31T02:59:11;64368.44;;;14.49;100.00
61037;BME280;72210;47.076;15.430;2023-10-31T03:01:38;64366.19;;;14.47;100.00
61037;BME280;72210;47.076;15.430;2023-10-31T03:04:05;64364.47;;;14.44;100.00
61037;BME280;72210;47.076;15.430;2023-10-31T03:06:32;64362.28;;;14.42;100.00
61037;BME280;72210;47.076;15.430;2023-10-31T03:08:59;64359.53;;;14.40;100.00
61037;BME280;72210;47.076;15.430;2023-10-31T03:11:26;64357.47;;;14.38;100.00
61037;BME280;72210;47.076;15.430;2023-10-31T03:13:55;64355.19;;;14.36;100.00
61037;BME280;72210;47.076;15.430;2023-10-31T03:16:22;64353.81;;;14.34;100.00
61037;BME280;72210;47.076;15.430;2023-10-31T03:18:49;64351.72;;;14.33;100.00
61037;BME280;72210;47.076;15.430;2023-10-31T03:21:17;64349.13;;;14.31;100.00
61037;BME280;72210;47.076;15.430;2023-10-31T03:23:46;64346.91;;;14.28;100.00
61037;BME280;72210;47.076;15.430;2023-10-31T03:26:14;64344.53;;;14.26;100.00
61037;BME280;72210;47.076;15.430;2023-10-31T03:28:42;64342.28;;;14.24;100.00
61037;BME280;72210;47.076;15.430;2023-10-31T03:31:13;64339.88;;;14.22;100.00
61037;BME280;72210;47.076;15.430;2023-10-31T03:33:40;64338.09;;;14.20;100.00
61037;BME280;72210;47.076;15.430;2023-10-31T03:36:08;64335.69;;;14.18;100.00
61037;BME280;72210;47.076;15.430;2023-10-31T03:38:36;64333.56;;;14.16;100.00
61037;BME280;72210;47.076;15.430;2023-10-31T03:41:03;64331.88;;;14.15;100.00
61037;BME280;72210;47.076;15.430;2023-10-31T03:43:30;64330.78;;;14.14;100.00
61037;BME280;72210;47.076;15.430;2023-10-31T03:45:57;64329.41;;;14.12;100.00
61037;BME280;72210;47.076;15.430;2023-10-31T03:48:26;64328.00;;;14.11;100.00
61037;BME280;72210;47.076;15.430;2023-10-31T03:50:53;64325.72;;;14.09;100.00
61037;BME280;72210;47.076;15.430;2023-10-31T03:53:20;64325.09;;;14.08;100.00
61037;BME280;72210;47.076;15.430;2023-10-31T03:55:47;64323.94;;;14.07;100.00
61037;BME280;72210;47.076;15.430;2023-10-31T03:58:14;64323.13;;;14.06;100.00
61037;BME280;72210;47.076;15.430;2023-10-31T04:00:41;64321.72;;;14.05;100.00
61037;BME280;72210;47.076;15.430;2023-10-31T04:03:08;64320.63;;;14.04;100.00
61037;BME280;72210;47.076;15.430;2023-10-31T04:05:37;64318.84;;;14.02;100.00
61037;BME280;72210;47.076;15.430;2023-10-31T04:08:04;64316.28;;;14.00;100.00
61037;BME280;72210;47.076;15.430;2023-10-31T04:10:31;64314.19;;;13.98;100.00
61037;BME280;72210;47.076;15.430;2023-10-31T04:12:58;64312.41;;;13.96;100.00
61037;BME280;72210;47.076;15.430;2023-10-31T04:15:25;64310.56;;;13.95;100.00
61037;BME280;72210;47.076;15.430;2023-10-31T04:17:51;64308.44;;;13.93;100.00
61037;BME280;72210;47.076;15.430;2023-10-31T04:20:19;64307.59;;;13.92;100.00
61037;BME280;72210;47.076;15.430;2023-10-31T04:22:47;64307.19;;;13.91;100.00
61037;BME280;72210;47.076;15.430;2023-10-31T04:25:14;64306.91;;;13.91;100.00
61037;BME280;72210;47.076;15.430;2023-10-31T04:27:41;64306.59;;;13.91;100.00
61037;BME280;72210;47.076;15.430;2023-10-31T04:30:09;64306.59;;;13.91;100.00
61037;BME280;72210;47.076;15.430;2023-10-31T04:32:40;64306.66;;;13.92;100.00
61037;BME280;72210;47.076;15.430;2023-10-31T04:35:08;64307.22;;;13.92;100.00
61037;BME280;72210;47.076;15.430;2023-10-31T04:37:35;64307.84;;;13.93;100.00
61037;BME280;72210;47.076;15.430;2023-10-31T04:40:04;64307.38;;;13.92;100.00
61037;BME280;72210;47.076;15.430;2023-10-31T04:42:31;64306.81;;;13.92;100.00
61037;BME280;72210;47.076;15.430;2023-10-31T04:44:59;64306.31;;;13.91;100.00
61037;BME280;72210;47.076;15.430;2023-10-31T04:47:26;64305.91;;;13.90;100.00
61037;BME280;72210;47.076;15.430;2023-10-31T04:49:53;64305.34;;;13.90;100.00
61037;BME280;72210;47.076;15.430;2023-10-31T04:52:20;64304.34;;;13.89;100.00
61037;BME280;72210;47.076;15.430;2023-10-31T04:54:48;64302.63;;;13.88;100.00
61037;BME280;72210;47.076;15.430;2023-10-31T04:57:16;64301.06;;;13.87;100.00
61037;BME280;72210;47.076;15.430;2023-10-31T04:59:43;64300.41;;;13.86;100.00
61037;BME280;72210;47.076;15.430;2023-10-31T05:02:10;64299.09;;;13.85;100.00
61037;BME280;72210;47.076;15.430;2023-10-31T05:04:38;64298.88;;;13.84;100.00
61037;BME280;72210;47.076;15.430;2023-10-31T05:07:05;64297.75;;;13.83;100.00
61037;BME280;72210;47.076;15.430;2023-10-31T05:09:32;64296.78;;;13.82;100.00
61037;BME280;72210;47.076;15.430;2023-10-31T05:11:59;64294.88;;;13.81;100.00
61037;BME280;72210;47.076;15.430;2023-10-31T05:14:28;64293.50;;;13.80;100.00
61037;BME280;72210;47.076;15.430;2023-10-31T05:16:55;64291.41;;;13.78;100.00
61037;BME280;72210;47.076;15.430;2023-10-31T05:19:22;64289.91;;;13.76;100.00
61037;BME280;72210;47.076;15.430;2023-10-31T05:21:49;64288.50;;;13.75;100.00
61037;BME280;72210;47.076;15.430;2023-10-31T05:24:16;64287.66;;;13.74;100.00
61037;BME280;72210;47.076;15.430;2023-10-31T05:26:43;64286.97;;;13.73;100.00
61037;BME280;72210;47.076;15.430;2023-10-31T05:29:11;64285.88;;;13.72;100.00
61037;BME280;72210;47.076;15.430;2023-10-31T05:31:40;64285.06;;;13.71;100.00
61037;BME280;72210;47.076;15.430;2023-10-31T05:34:07;64283.94;;;13.70;100.00
61037;BME280;72210;47.076;15.430;2023-10-31T05:36:34;64282.81;;;13.69;100.00
61037;BME280;72210;47.076;15.430;2023-10-31T05:39:01;64281.75;;;13.68;100.00
61037;BME280;72210;47.076;15.430;2023-10-31T05:41:28;64280.34;;;13.67;100.00
61037;BME280;72210;47.076;15.430;2023-10-31T05:43:54;64279.06;;;13.65;100.00
61037;BME280;72210;47.076;15.430;2023-10-31T05:46:21;64277.47;;;13.64;100.00
61037;BME280;72210;47.076;15.430;2023-10-31T05:48:50;64276.94;;;13.64;100.00
61037;BME280;72210;47.076;15.430;2023-10-31T05:51:18;64276.00;;;13.63;100.00
61037;BME280;72210;47.076;15.430;2023-10-31T05:53:47;64274.88;;;13.62;100.00
61037;BME280;72210;47.076;15.430;2023-10-31T05:56:15;64274.34;;;13.61;100.00
61037;BME280;72210;47.076;15.430;2023-10-31T05:58:43;64273.50;;;13.60;100.00
61037;BME280;72210;47.076;15.430;2023-10-31T06:01:10;64272.81;;;13.59;100.00
61037;BME280;72210;47.076;15.430;2023-10-31T06:03:37;64271.28;;;13.58;100.00
61037;BME280;72210;47.076;15.430;2023-10-31T06:06:07;64270.03;;;13.57;100.00
61037;BME280;72210;47.076;15.430;2023-10-31T06:08:34;64268.06;;;13.55;100.00
61037;BME280;72210;47.076;15.430;2023-10-31T06:11:03;64265.97;;;13.53;100.00
61037;BME280;72210;47.076;15.430;2023-10-31T06:13:30;64263.88;;;13.51;100.00
61037;BME280;72210;47.076;15.430;2023-10-31T06:15:57;64261.47;;;13.49;100.00
61037;BME280;72210;47.076;15.430;2023-10-31T06:18:28;64258.91;;;13.47;100.00
61037;BME280;72210;47.076;15.430;2023-10-31T06:20:55;64257.09;;;13.45;100.00
61037;BME280;72210;47.076;15.430;2023-10-31T06:23:24;64255.56;;;13.44;100.00
61037;BME280;72210;47.076;15.430;2023-10-31T06:25:50;64254.03;;;13.42;100.00
61037;BME280;72210;47.076;15.430;2023-10-31T06:28:18;64253.03;;;13.42;100.00
61037;BME280;72210;47.076;15.430;2023-10-31T06:30:45;64252.78;;;13.41;100.00
61037;BME280;72210;47.076;15.430;2023-10-31T06:33:12;64253.13;;;13.41;100.00
61037;BME280;72210;47.076;15.430;2023-10-31T06:35:39;64254.31;;;13.42;100.00
61037;BME280;72210;47.076;15.430;2023-10-31T06:38:06;64254.75;;;13.42;100.00
61037;BME280;72210;47.076;15.430;2023-10-31T06:40:35;64254.75;;;13.42;100.00
61037;BME280;72210;47.076;15.430;2023-10-31T06:43:02;64255.06;;;13.42;100.00
61037;BME280;72210;47.076;15.430;2023-10-31T06:45:29;64254.75;;;13.42;100.00
61037;BME280;72210;47.076;15.430;2023-10-31T06:47:56;64254.59;;;13.42;100.00
61037;BME280;72210;47.076;15.430;2023-10-31T06:50:24;64255.00;;;13.42;100.00
61037;BME280;72210;47.076;15.430;2023-10-31T06:52:51;64255.56;;;13.43;100.00
61037;BME280;72210;47.076;15.430;2023-10-31T06:55:18;64256.53;;;13.44;100.00
61037;BME280;72210;47.076;15.430;2023-10-31T06:57:46;64256.63;;;13.44;100.00
61037;BME280;72210;47.076;15.430;2023-10-31T07:00:14;64256.88;;;13.45;100.00
61037;BME280;72210;47.076;15.430;2023-10-31T07:02:41;64257.31;;;13.45;100.00
61037;BME280;72210;47.076;15.430;2023-10-31T07:05:09;64257.75;;;13.45;100.00
61037;BME280;72210;47.076;15.430;2023-10-31T07:07:36;64257.41;;;13.45;100.00
61037;BME280;72210;47.076;15.430;2023-10-31T07:10:04;64257.41;;;13.45;100.00
61037;BME280;72210;47.076;15.430;2023-10-31T07:12:31;64257.13;;;13.45;100.00
61037;BME280;72210;47.076;15.430;2023-10-31T07:14:59;64257.47;;;13.45;100.00
61037;BME280;72210;47.076;15.430;2023-10-31T07:17:26;64257.13;;;13.45;100.00
61037;BME280;72210;47.076;15.430;2023-10-31T07:19:53;64257.47;;;13.45;100.00
61037;BME280;72210;47.076;15.430;2023-10-31T07:22:21;64257.75;;;13.45;100.00
61037;BME280;72210;47.076;15.430;2023-10-31T07:24:47;64257.91;;;13.45;100.00
61037;BME280;72210;47.076;15.430;2023-10-31T07:27:14;64257.63;;;13.45;100.00
61037;BME280;72210;47.076;15.430;2023-10-31T07:29:41;64257.34;;;13.45;100.00
61037;BME280;72210;47.076;15.430;2023-10-31T07:32:10;64257.34;;;13.45;100.00
61037;BME280;72210;47.076;15.430;2023-10-31T07:34:40;64257.84;;;13.45;100.00
61037;BME280;72210;47.076;15.430;2023-10-31T07:37:07;64258.44;;;13.45;100.00
61037;BME280;72210;47.076;15.430;2023-10-31T07:39:34;64259.44;;;13.46;100.00
61037;BME280;72210;47.076;15.430;2023-10-31T07:42:01;64260.78;;;13.46;100.00
61037;BME280;72210;47.076;15.430;2023-10-31T07:44:28;64261.56;;;13.48;100.00
61037;BME280;72210;47.076;15.430;2023-10-31T07:46:56;64263.41;;;13.49;100.00
61037;BME280;72210;47.076;15.430;2023-10-31T07:49:24;64265.94;;;13.51;100.00
61037;BME280;72210;47.076;15.430;2023-10-31T07:51:51;64269.34;;;13.54;100.00
61037;BME280;72210;47.076;15.430;2023-10-31T07:54:18;64273.09;;;13.58;100.00
61037;BME280;72210;47.076;15.430;2023-10-31T07:56:45;64276.59;;;13.61;100.00
61037;BME280;72210;47.076;15.430;2023-10-31T07:59:12;64280.28;;;13.64;100.00
61037;BME280;72210;47.076;15.430;2023-10-31T08:01:40;64284.56;;;13.68;100.00
61037;BME280;72210;47.076;15.430;2023-10-31T08:04:07;64289.88;;;13.73;100.00
61037;BME280;72210;47.076;15.430;2023-10-31T08:06:35;64296.66;;;13.79;100.00
61037;BME280;72210;47.076;15.430;2023-10-31T08:09:03;64302.91;;;13.85;100.00
61037;BME280;72210;47.076;15.430;2023-10-31T08:11:32;64309.19;;;13.91;100.00
61037;BME280;72210;47.076;15.430;2023-10-31T08:13:59;64316.00;;;13.97;100.00
61037;BME280;72210;47.076;15.430;2023-10-31T08:16:26;64321.06;;;14.02;100.00
61037;BME280;72210;47.076;15.430;2023-10-31T08:18:53;64325.78;;;14.06;100.00
61037;BME280;72210;47.076;15.430;2023-10-31T08:21:20;64330.13;;;14.10;100.00
61037;BME280;72210;47.076;15.430;2023-10-31T08:23:48;64334.03;;;14.14;100.00
61037;BME280;72210;47.076;15.430;2023-10-31T08:26:15;64337.06;;;14.17;100.00
61037;BME280;72210;47.076;15.430;2023-10-31T08:28:43;64339.72;;;14.19;100.00
61037;BME280;72210;47.076;15.430;2023-10-31T08:31:10;64342.31;;;14.22;100.00
61037;BME280;72210;47.076;15.430;2023-10-31T08:33:37;64345.56;;;14.25;100.00
61037;BME280;72210;47.076;15.430;2023-10-31T08:36:04;64348.50;;;14.28;100.00
61037;BME280;72210;47.076;15.430;2023-10-31T08:38:31;64351.78;;;14.30;100.00
61037;BME280;72210;47.076;15.430;2023-10-31T08:41:00;64354.75;;;14.33;100.00
61037;BME280;72210;47.076;15.430;2023-10-31T08:43:28;64357.25;;;14.35;100.00
61037;BME280;72210;47.076;15.430;2023-10-31T08:45:55;64359.94;;;14.38;100.00
61037;BME280;72210;47.076;15.430;2023-10-31T08:48:22;64362.50;;;14.40;100.00
61037;BME280;72210;47.076;15.430;2023-10-31T08:50:49;64364.19;;;14.41;100.00
61037;BME280;72210;47.076;15.430;2023-10-31T08:53:16;64366.09;;;14.42;100.00
61037;BME280;72210;47.076;15.430;2023-10-31T08:55:43;64367.22;;;14.43;100.00
61037;BME280;72210;47.076;15.430;2023-10-31T08:58:12;64368.09;;;14.44;100.00
61037;BME280;72210;47.076;15.430;2023-10-31T09:00:39;64368.81;;;14.44;100.00
61037;BME280;72210;47.076;15.430;2023-10-31T09:03:06;64369.25;;;14.45;100.00
61037;BME280;72210;47.076;15.430;2023-10-31T09:05:33;64368.97;;;14.44;100.00
61037;BME280;72210;47.076;15.430;2023-10-31T09:08:00;64368.41;;;14.44;100.00
61037;BME280;72210;47.076;15.430;2023-10-31T09:10:27;64367.41;;;14.43;100.00
61037;BME280;72210;47.076;15.430;2023-10-31T09:12:54;64366.13;;;14.42;100.00
61037;BME280;72210;47.076;15.430;2023-10-31T09:15:23;64365.53;;;14.41;100.00
61037;BME280;72210;47.076;15.430;2023-10-31T09:17:50;64363.25;;;14.39;100.00
61037;BME280;72210;47.076;15.430;2023-10-31T09:20:17;64361.63;;;14.37;100.00
61037;BME280;72210;47.076;15.430;2023-10-31T09:22:44;64359.22;;;14.35;100.00
61037;BME280;72210;47.076;15.430;2023-10-31T09:25:11;64354.31;;;14.31;100.00
61037;BME280;72210;47.076;15.430;2023-10-31T09:27:40;64347.44;;;14.24;100.00
61037;BME280;72210;47.076;15.430;2023-10-31T09:30:08;64340.00;;;14.18;100.00
61037;BME280;72210;47.076;15.430;2023-10-31T09:32:37;64331.41;;;14.10;100.00
61037;BME280;72210;47.076;15.430;2023-10-31T09:35:04;64354.13;;;14.31;100.00
61037;BME280;72210;47.076;15.430;2023-10-31T09:37:31;64368.25;;;14.44;100.00
61037;BME280;72210;47.076;15.430;2023-10-31T09:39:58;64375.94;;;14.51;100.00
61037;BME280;72210;47.076;15.430;2023-10-31T09:42:25;64381.56;;;14.56;100.00
61037;BME280;72210;47.076;15.430;2023-10-31T09:44:53;64385.19;;;14.60;100.00
61037;BME280;72210;47.076;15.430;2023-10-31T09:47:20;64388.56;;;14.63;100.00
61037;BME280;72210;47.076;15.430;2023-10-31T09:49:50;64391.66;;;14.66;100.00
61037;BME280;72210;47.076;15.430;2023-10-31T09:52:17;64394.19;;;14.68;100.00
61037;BME280;72210;47.076;15.430;2023-10-31T09:54:44;64395.47;;;14.69;100.00
61037;BME280;72210;47.076;15.430;2023-10-31T09:57:13;64395.03;;;14.69;100.00
61037;BME280;72210;47.076;15.430;2023-10-31T09:59:41;64395.09;;;14.69;100.00
61037;BME280;72210;47.076;15.430;2023-10-31T10:02:08;64395.38;;;14.69;100.00
61037;BME280;72210;47.076;15.430;2023-10-31T10:04:35;64394.53;;;14.69;100.00
61037;BME280;72210;47.076;15.430;2023-10-31T10:07:05;64392.16;;;14.66;100.00
61037;BME280;72210;47.076;15.430;2023-10-31T10:09:32;64389.09;;;14.63;100.00
61037;BME280;72210;47.076;15.430;2023-10-31T10:12:00;64385.41;;;14.60;100.00
61037;BME280;72210;47.076;15.430;2023-10-31T10:14:27;64381.91;;;14.57;100.00
61037;BME280;72210;47.076;15.430;2023-10-31T10:16:54;64377.75;;;14.53;100.00
61037;BME280;72210;47.076;15.430;2023-10-31T10:19:22;64373.97;;;14.49;100.00
61037;BME280;72210;47.076;15.430;2023-10-31T10:21:51;64371.03;;;14.47;100.00
61037;BME280;72210;47.076;15.430;2023-10-31T10:24:22;64368.94;;;14.45;100.00
61037;BME280;72210;47.076;15.430;2023-10-31T10:26:51;64367.56;;;14.43;100.00
61037;BME280;72210;47.076;15.430;2023-10-31T10:29:18;64364.94;;;14.41;100.00
61037;BME280;72210;47.076;15.430;2023-10-31T10:31:46;64361.75;;;14.38;100.00
61037;BME280;72210;47.076;15.430;2023-10-31T10:34:15;64357.53;;;14.34;100.00
61037;BME280;72210;47.076;15.430;2023-10-31T10:36:46;64351.81;;;14.28;100.00
61037;BME280;72210;47.076;15.430;2023-10-31T10:39:18;64344.22;;;14.21;100.00
61037;BME280;72210;47.076;15.430;2023-10-31T10:41:52;64337.50;;;14.15;100.00
61037;BME280;72210;47.076;15.430;2023-10-31T10:44:23;64332.41;;;14.10;100.00
61037;BME280;72210;47.076;15.430;2023-10-31T10:46:55;64328.47;;;14.06;100.00
61037;BME280;72210;47.076;15.430;2023-10-31T10:49:25;64324.97;;;14.03;100.00
61037;BME280;72210;47.076;15.430;2023-10-31T10:51:57;64322.25;;;14.01;100.00
61037;BME280;72210;47.076;15.430;2023-10-31T10:54:26;64320.31;;;13.99;100.00
61037;BME280;72210;47.076;15.430;2023-10-31T10:57:06;64317.47;;;13.97;100.00
61037;BME280;72210;47.076;15.430;2023-10-31T10:59:40;64315.84;;;13.95;100.00
61037;BME280;72210;47.076;15.430;2023-10-31T11:02:08;64312.78;;;13.92;100.00
61037;BME280;72210;47.076;15.430;2023-10-31T11:04:36;64309.59;;;13.89;100.00
61037;BME280;72210;47.076;15.430;2023-10-31T11:07:03;64308.75;;;13.88;100.00
61037;BME280;72210;47.076;15.430;2023-10-31T11:09:31;64309.63;;;13.89;100.00
61037;BME280;72210;47.076;15.430;2023-10-31T11:12:00;64311.44;;;13.90;100.00
61037;BME280;72210;47.076;15.430;2023-10-31T11:14:30;64315.53;;;13.94;100.00
61037;BME280;72210;47.076;15.430;2023-10-31T11:17:00;64320.72;;;13.99;100.00
61037;BME280;72210;47.076;15.430;2023-10-31T11:19:30;64335.50;;;14.12;100.00
61037;BME280;72210;47.076;15.430;2023-10-31T11:21:58;64355.50;;;14.30;100.00
61037;BME280;72210;47.076;15.430;2023-10-31T11:24:27;64373.91;;;14.47;100.00
61037;BME280;72210;47.076;15.430;2023-10-31T11:27:00;64389.78;;;14.61;100.00
61037;BME280;72210;47.076;15.430;2023-10-31T11:29:28;64404.44;;;14.74;100.00
61037;BME280;72210;47.076;15.430;2023-10-31T11:31:57;64415.81;;;14.85;100.00
61037;BME280;72210;47.076;15.430;2023-10-31T11:34:26;64425.53;;;14.93;100.00
61037;BME280;72210;47.076;15.430;2023-10-31T11:37:18;64433.19;;;15.01;100.00
61037;BME280;72210;47.076;15.430;2023-10-31T11:40:16;64418.34;;;14.87;100.00
61037;BME280;72210;47.076;15.430;2023-10-31T11:42:47;64401.81;;;14.72;100.00
61037;BME280;72210;47.076;15.430;2023-10-31T11:45:26;64385.00;;;14.56;100.00
61037;BME280;72210;47.076;15.430;2023-10-31T11:47:53;64369.03;;;14.41;100.00
61037;BME280;72210;47.076;15.430;2023-10-31T11:50:21;64353.66;;;14.27;100.00
61037;BME280;72210;47.076;15.430;2023-10-31T11:52:59;64338.97;;;14.13;100.00
61037;BME280;72210;47.076;15.430;2023-10-31T11:55:27;64323.22;;;13.99;100.00
61037;BME280;72210;47.076;15.430;2023-10-31T11:57:55;64308.22;;;13.86;100.00
61037;BME280;72210;47.076;15.430;2023-10-31T12:00:23;64294.47;;;13.73;100.00
61037;BME280;72210;47.076;15.430;2023-10-31T12:02:58;64282.38;;;13.61;100.00
61037;BME280;72210;47.076;15.430;2023-10-31T12:05:26;64270.88;;;13.51;100.00
61037;BME280;72210;47.076;15.430;2023-10-31T12:07:53;64260.13;;;13.41;100.00
61037;BME280;72210;47.076;15.430;2023-10-31T12:10:25;64249.41;;;13.31;100.00
61037;BME280;72210;47.076;15.430;2023-10-31T12:12:53;64238.78;;;13.22;100.00
61037;BME280;72210;47.076;15.430;2023-10-31T12:15:22;64228.41;;;13.12;100.00
61037;BME280;72210;47.076;15.430;2023-10-31T12:17:49;64218.00;;;13.03;100.00
61037;BME280;72210;47.076;15.430;2023-10-31T12:20:16;64208.94;;;12.94;100.00
61037;BME280;72210;47.076;15.430;2023-10-31T12:22:44;64200.13;;;12.86;100.00
61037;BME280;72210;47.076;15.430;2023-10-31T12:25:11;64191.31;;;12.78;100.00
61037;BME280;72210;47.076;15.430;2023-10-31T12:27:45;64182.84;;;12.70;100.00
61037;BME280;72210;47.076;15.430;2023-10-31T12:30:14;64175.03;;;12.62;100.00
61037;BME280;72210;47.076;15.430;2023-10-31T12:32:44;64166.91;;;12.55;100.00
61037;BME280;72210;47.076;15.430;2023-10-31T12:35:14;64159.66;;;12.48;100.00
61037;BME280;72210;47.076;15.430;2023-10-31T12:37:45;64152.22;;;12.42;100.00
61037;BME280;72210;47.076;15.430;2023-10-31T12:40:15;64145.94;;;12.36;100.00
61037;BME280;72210;47.076;15.430;2023-10-31T12:42:43;64140.06;;;12.30;100.00
61037;BME280;72210;47.076;15.430;2023-10-31T12:45:11;64134.25;;;12.25;100.00